createdAt,value
2023-01-21T00:02:25.981Z,99788.06
2023-01-21T00:04:54.695Z,99775.16
2023-01-21T00:07:30.426Z,99768.31
2023-01-21T00:09:59.185Z,99758.88
2023-01-21T00:12:28.132Z,99756.31
2023-01-21T00:14:56.600Z,99769.22
2023-01-21T00:17:25.550Z,99772.69
2023-01-21T00:19:54.223Z,99751.16
2023-01-21T00:22:22.907Z,99750.34
2023-01-21T00:24:52.974Z,99741.72
2023-01-21T00:27:22.904Z,99746.97
2023-01-21T00:29:51.292Z,99746.94
2023-01-21T00:32:21.294Z,99744.38
2023-01-21T00:34:50.503Z,99750.44
2023-01-21T00:37:20.764Z,99746.16
2023-01-21T00:39:49.249Z,99737.53
2023-01-21T00:42:19.177Z,99740.09
2023-01-21T00:44:48.297Z,99740.94
2023-01-21T00:47:18.047Z,99736.63
2023-01-21T00:49:46.375Z,99723.72
2023-01-21T00:52:15.581Z,99726.34
2023-01-21T00:54:44.596Z,99722.94
2023-01-21T00:57:14.031Z,99715.19
2023-01-21T00:59:44.372Z,99725.50
2023-01-21T01:02:13.428Z,99717.78
2023-01-21T01:04:42.227Z,99704.88
2023-01-21T01:07:13.985Z,99716.00
2023-01-21T01:09:42.370Z,99718.59
2023-01-21T01:12:12.381Z,99705.66
2023-01-21T01:14:40.795Z,99697.94
2023-01-21T01:17:10.681Z,99696.25
2023-01-21T01:19:39.365Z,99692.78
2023-01-21T01:22:07.829Z,99689.38
2023-01-21T01:24:36.330Z,99679.94
2023-01-21T01:27:05.536Z,99681.66
2023-01-21T01:29:34.102Z,99682.50
2023-01-21T01:32:03.191Z,99680.78
2023-01-21T01:34:33.199Z,99675.59
2023-01-21T01:37:01.786Z,99676.47
2023-01-21T01:39:30.504Z,99679.03
2023-01-21T01:41:59.751Z,99674.72
2023-01-21T01:44:55.812Z,99683.34
2023-01-21T01:47:28.482Z,99682.47
2023-01-21T01:49:59.011Z,99679.03
2023-01-21T01:52:28.710Z,99689.38
2023-01-21T01:55:00.458Z,99687.66
2023-01-21T01:57:33.859Z,99679.97
2023-01-21T02:00:04.310Z,99687.66
2023-01-21T02:02:41.684Z,99681.63
2023-01-21T02:05:12.879Z,99680.78
2023-01-21T02:07:43.898Z,99671.34
2023-01-21T02:10:16.579Z,99668.81
2023-01-21T02:12:45.745Z,99661.88
2023-01-21T02:15:14.246Z,99665.28
2023-01-21T02:17:55.535Z,99661.00
2023-01-21T02:20:49.379Z,99665.34
2023-01-21T02:23:23.872Z,99651.56
2023-01-21T02:26:30.971Z,99650.69
2023-01-21T02:29:18.833Z,99645.59
2023-01-21T02:32:29.149Z,99634.41
2023-01-21T02:35:05.256Z,99632.69
2023-01-21T02:37:44.882Z,99627.53
2023-01-21T02:40:19.071Z,99628.34
2023-01-21T02:42:50.260Z,99622.38
2023-01-21T02:45:28.595Z,99616.34
2023-01-21T02:48:06.313Z,99609.44
2023-01-21T02:50:40.835Z,99599.94
2023-01-21T02:53:24.695Z,99592.19
2023-01-21T02:55:53.876Z,99599.03
2023-01-21T02:58:28.674Z,99588.69
2023-01-21T03:01:12.604Z,99590.47
2023-01-21T03:03:56.436Z,99581.03
2023-01-21T03:06:42.731Z,99583.63
2023-01-21T03:09:22.302Z,99581.94
2023-01-21T03:12:00.687Z,99587.91
2023-01-21T03:14:50.595Z,99570.72
2023-01-21T03:17:29.289Z,99588.78
2023-01-21T03:20:03.618Z,99584.44
2023-01-21T03:22:36.353Z,99591.28
2023-01-21T03:25:06.485Z,99587.88
2023-01-21T03:27:38.431Z,99582.72
2023-01-21T03:30:13.430Z,99585.31
2023-01-21T03:32:44.268Z,99591.34
2023-01-21T03:35:17.792Z,99598.22
2023-01-21T03:37:54.100Z,99591.31
2023-01-21T03:40:25.457Z,99587.03
2023-01-21T03:42:56.596Z,99578.44
2023-01-21T03:45:38.586Z,99584.44
2023-01-21T03:48:15.215Z,99587.03
2023-01-21T03:50:49.745Z,99585.28
2023-01-21T03:53:19.673Z,99580.06
2023-01-21T03:55:51.903Z,99577.56
2023-01-21T03:58:20.265Z,99582.69
2023-01-21T04:00:49.489Z,99575.78
2023-01-21T04:03:22.450Z,99566.34
2023-01-21T04:05:50.836Z,99569.81
2023-01-21T04:08:20.548Z,99572.41
2023-01-21T04:10:49.464Z,99572.38
2023-01-21T04:13:17.849Z,99569.75
2023-01-21T04:15:46.526Z,99560.38
2023-01-21T04:18:14.929Z,99564.66
2023-01-21T04:20:43.663Z,99561.19
2023-01-21T04:23:12.892Z,99562.88
2023-01-21T04:25:42.704Z,99568.88
2023-01-21T04:28:10.991Z,99562.00
2023-01-21T04:30:39.581Z,99571.47
2023-01-21T04:33:07.954Z,99568.91
2023-01-21T04:35:36.800Z,99567.97
2023-01-21T04:38:06.905Z,99564.50
2023-01-21T04:40:35.822Z,99568.78
2023-01-21T04:43:05.432Z,99569.75
2023-01-21T04:45:36.992Z,99571.50
2023-01-21T04:48:05.635Z,99568.06
2023-01-21T04:50:34.020Z,99562.09
2023-01-21T04:53:02.501Z,99563.75
2023-01-21T04:55:30.940Z,99568.03
2023-01-21T04:57:59.262Z,99563.75
2023-01-21T05:00:29.128Z,99563.78
2023-01-21T05:02:57.874Z,99567.25
2023-01-21T05:05:26.298Z,99571.53
2023-01-21T05:07:56.069Z,99568.97
2023-01-21T05:10:24.358Z,99568.03
2023-01-21T05:12:52.757Z,99567.13
2023-01-21T05:15:21.133Z,99568.00
2023-01-21T05:17:50.697Z,99562.88
2023-01-21T05:20:22.683Z,99564.56
2023-01-21T05:22:51.232Z,99561.16
2023-01-21T05:25:19.839Z,99567.16
2023-01-21T05:27:53.233Z,99563.72
2023-01-21T05:30:21.889Z,99563.66
2023-01-21T05:32:56.603Z,99563.72
2023-01-21T05:35:25.993Z,99572.28
2023-01-21T05:37:54.553Z,99573.16
2023-01-21T05:40:23.189Z,99570.56
2023-01-21T05:42:51.389Z,99572.16
2023-01-21T05:45:19.775Z,99568.69
2023-01-21T05:47:48.212Z,99569.53
2023-01-21T05:50:18.406Z,99570.44
2023-01-21T05:52:47.136Z,99568.78
2023-01-21T05:55:15.589Z,99567.91
2023-01-21T05:57:43.790Z,99571.38
2023-01-21T06:00:13.447Z,99571.38
2023-01-21T06:02:41.846Z,99571.38
2023-01-21T06:05:10.472Z,99582.50
2023-01-21T06:07:40.079Z,99579.91
2023-01-21T06:10:09.879Z,99585.97
2023-01-21T06:12:38.160Z,99588.53
2023-01-21T06:15:07.695Z,99584.28
2023-01-21T06:17:39.277Z,99578.31
2023-01-21T06:20:08.254Z,99585.97
2023-01-21T06:22:36.556Z,99586.78
2023-01-21T06:25:06.827Z,99579.94
2023-01-21T06:27:37.350Z,99580.78
2023-01-21T06:30:07.731Z,99582.47
2023-01-21T06:32:36.365Z,99583.34
2023-01-21T06:35:05.485Z,99580.78
2023-01-21T06:37:33.963Z,99589.34
2023-01-21T06:40:02.737Z,99579.88
2023-01-21T06:42:32.873Z,99584.25
2023-01-21T06:45:01.389Z,99580.78
2023-01-21T06:47:29.871Z,99580.72
2023-01-21T06:49:58.341Z,99581.56
2023-01-21T06:52:27.128Z,99585.00
2023-01-21T06:54:55.625Z,99579.84
2023-01-21T06:57:25.112Z,99581.56
2023-01-21T06:59:54.782Z,99587.53
2023-01-21T07:02:23.563Z,99582.28
2023-01-21T07:04:52.471Z,99590.06
2023-01-21T07:07:20.852Z,99594.31
2023-01-21T07:09:49.251Z,99594.22
2023-01-21T07:12:17.651Z,99594.28
2023-01-21T07:14:46.160Z,99590.84
2023-01-21T07:17:16.614Z,99590.84
2023-01-21T07:19:44.976Z,99593.44
2023-01-21T07:22:13.449Z,99595.09
2023-01-21T07:24:41.908Z,99597.66
2023-01-21T07:27:10.921Z,99598.47
2023-01-21T07:29:39.747Z,99600.13
2023-01-21T07:32:08.378Z,99599.31
2023-01-21T07:34:38.851Z,99601.84
2023-01-21T07:37:07.784Z,99596.63
2023-01-21T07:39:36.646Z,99596.59
2023-01-21T07:42:05.499Z,99600.84
2023-01-21T07:44:34.884Z,99599.13
2023-01-21T07:47:05.425Z,99602.53
2023-01-21T07:49:36.371Z,99605.91
2023-01-21T07:52:06.437Z,99605.81
2023-01-21T07:54:35.223Z,99606.66
2023-01-21T07:57:07.439Z,99605.81
2023-01-21T07:59:36.076Z,99607.56
2023-01-21T08:11:58.938Z,99609.50
2023-01-21T08:14:27.731Z,99620.69
2023-01-21T08:16:56.830Z,99628.59
2023-01-21T08:19:25.244Z,99623.47
2023-01-21T08:21:54.196Z,99627.75
2023-01-21T08:24:23.832Z,99629.38
2023-01-21T08:26:52.213Z,99631.28
2023-01-21T08:29:22.771Z,99621.94
2023-01-21T08:31:52.522Z,99623.59
2023-01-21T08:34:21.591Z,99630.38
2023-01-21T08:36:50.305Z,99624.41
2023-01-21T08:39:19.154Z,99627.16
2023-01-21T08:41:47.896Z,99633.28
2023-01-21T08:44:16.318Z,99633.28
2023-01-21T08:46:46.183Z,99639.31
2023-01-21T08:49:14.649Z,99645.22
2023-01-21T08:51:43.341Z,99653.78
2023-01-21T08:54:12.147Z,99655.56
2023-01-21T08:56:40.633Z,99657.16
2023-01-21T08:59:09.011Z,99662.28
2023-01-21T09:01:41.108Z,99659.59
2023-01-21T09:04:11.588Z,99664.72
2023-01-21T09:06:40.075Z,99661.06
2023-01-21T09:09:08.770Z,99662.72
2023-01-21T09:11:37.376Z,99664.31
2023-01-21T09:14:06.958Z,99668.41
2023-01-21T09:16:36.775Z,99673.44
2023-01-21T09:19:06.114Z,99674.22
2023-01-21T09:21:38.017Z,99671.63
2023-01-21T09:24:08.309Z,99670.66
2023-01-21T09:26:37.736Z,99673.97
2023-01-21T09:29:10.605Z,99681.66
2023-01-21T09:31:44.472Z,99673.06
2023-01-21T09:34:14.121Z,99682.66
2023-01-21T09:36:44.410Z,99691.31
2023-01-21T09:39:16.141Z,99697.41
2023-01-21T09:41:49.874Z,99695.75
2023-01-21T09:44:30.038Z,99703.56
2023-01-21T09:47:04.830Z,99698.34
2023-01-21T09:49:39.706Z,99705.31
2023-01-21T09:52:23.309Z,99708.97
2023-01-21T09:54:53.859Z,99709.88
2023-01-21T09:57:42.563Z,99711.50
2023-01-21T10:00:34.541Z,99715.66
2023-01-21T10:03:14.069Z,99713.06
2023-01-21T10:06:12.725Z,99718.97
2023-01-21T10:08:57.779Z,99724.09
2023-01-21T10:11:40.235Z,99723.91
2023-01-21T10:14:30.046Z,99725.38
2023-01-21T10:17:06.194Z,99728.72
2023-01-21T10:19:42.938Z,99727.81
2023-01-21T10:22:17.191Z,99729.50
2023-01-21T10:24:52.073Z,99736.38
2023-01-21T10:27:23.911Z,99741.47
2023-01-21T10:29:57.124Z,99748.44
2023-01-21T10:32:28.485Z,99757.88
2023-01-21T10:35:01.014Z,99750.16
2023-01-21T10:37:37.175Z,99756.19
2023-01-21T10:40:36.980Z,99754.53
2023-01-21T10:43:11.815Z,99760.81
2023-01-21T10:45:52.493Z,99760.81
2023-01-21T10:48:30.040Z,99773.69
2023-01-21T10:51:07.217Z,99778.75
2023-01-21T10:53:48.674Z,99778.56
2023-01-21T10:56:47.072Z,99781.88
2023-01-21T10:59:22.139Z,99785.22
2023-01-21T11:01:54.870Z,99787.78
2023-01-21T11:04:25.599Z,99786.97
2023-01-21T11:07:00.772Z,99779.25
2023-01-21T11:09:36.757Z,99782.69
2023-01-21T11:12:07.135Z,99783.59
2023-01-21T11:14:36.146Z,99783.69
2023-01-21T11:17:05.255Z,99792.50
2023-01-21T11:19:34.068Z,99799.53
2023-01-21T11:22:05.265Z,99797.00
2023-01-21T11:24:43.955Z,99801.50
2023-01-21T11:27:23.008Z,99798.19
2023-01-21T11:29:52.175Z,99804.31
2023-01-21T11:32:23.763Z,99804.38
2023-01-21T11:34:57.994Z,99808.56
2023-01-21T11:37:28.320Z,99812.78
2023-01-21T11:39:59.088Z,99817.09
2023-01-21T11:42:29.136Z,99821.47
2023-01-21T11:45:04.542Z,99828.47
2023-01-21T11:47:41.218Z,99831.97
2023-01-21T11:50:13.646Z,99833.78
2023-01-21T11:52:42.127Z,99840.69
2023-01-21T11:55:23.120Z,99845.06
2023-01-21T11:57:56.663Z,99851.09
2023-01-21T12:00:29.920Z,99850.16
2023-01-21T12:03:06.393Z,99855.25
2023-01-21T12:05:37.964Z,99857.84
2023-01-21T12:08:08.245Z,99858.72
2023-01-21T12:10:43.690Z,99862.13
2023-01-21T12:13:21.314Z,99863.81
2023-01-21T12:16:22.217Z,99865.47
2023-01-21T12:19:25.188Z,99868.06
2023-01-21T12:22:07.226Z,99869.78
2023-01-21T12:24:41.850Z,99871.56
2023-01-21T12:27:22.384Z,99874.22
2023-01-21T12:30:03.327Z,99878.59
2023-01-21T12:32:37.402Z,99884.44
2023-01-21T12:35:13.112Z,99893.97
2023-01-21T12:37:48.516Z,99894.00
2023-01-21T12:40:23.501Z,99894.13
2023-01-21T12:42:57.379Z,99893.25
2023-01-21T12:45:35.498Z,99887.22
2023-01-21T12:48:11.924Z,99900.97
2023-01-21T12:50:44.771Z,99912.09
2023-01-21T12:53:19.574Z,99909.50
2023-01-21T12:56:09.477Z,99913.84
2023-01-21T12:58:44.117Z,99920.81
2023-01-21T13:01:19.293Z,99925.16
2023-01-21T13:03:57.151Z,99933.94
2023-01-21T13:06:51.997Z,99928.78
2023-01-21T13:09:30.594Z,99931.41
2023-01-21T13:12:04.903Z,99939.13
2023-01-21T13:14:40.120Z,99946.91
2023-01-21T13:17:16.370Z,99952.09
2023-01-21T13:19:45.294Z,99953.84
2023-01-21T13:22:26.038Z,99959.75
2023-01-21T13:25:15.180Z,99960.59
2023-01-21T13:27:51.858Z,99964.81
2023-01-21T13:30:29.778Z,99976.81
2023-01-21T13:33:15.585Z,99981.16
2023-01-21T13:35:51.658Z,99982.88
2023-01-21T13:38:28.699Z,99986.28
2023-01-21T13:41:10.129Z,99989.72
2023-01-21T13:43:58.227Z,99990.53
2023-01-21T13:46:48.210Z,100001.75
2023-01-21T13:49:40.230Z,100009.44
2023-01-21T13:52:14.114Z,100011.19
2023-01-21T13:55:13.116Z,100009.44
2023-01-21T13:57:58.289Z,100021.56
2023-01-21T14:00:32.420Z,100019.75
2023-01-21T14:03:12.941Z,100020.53
2023-01-21T14:05:48.666Z,100025.69
2023-01-21T14:08:27.501Z,100029.09
2023-01-21T14:11:00.195Z,100036.88
2023-01-21T14:14:04.927Z,100036.75
2023-01-21T14:17:10.102Z,100038.31
2023-01-21T14:20:08.301Z,100049.38
2023-01-21T14:23:07.185Z,100052.84
2023-01-21T14:25:48.715Z,100055.50
2023-01-21T14:28:28.188Z,100065.94
2023-01-21T14:31:04.999Z,100068.53
2023-01-21T14:33:44.508Z,100073.78
2023-01-21T14:36:19.299Z,100082.59
2023-01-21T14:39:00.843Z,100092.22
2023-01-21T14:42:01.397Z,100092.44
2023-01-21T14:44:38.228Z,100107.28
2023-01-21T14:47:23.252Z,100112.59
2023-01-21T14:49:54.147Z,100123.94
2023-01-21T14:52:30.432Z,100130.91
2023-01-21T14:55:01.300Z,100137.88
2023-01-21T14:57:32.854Z,100147.47
2023-01-21T15:00:14.206Z,100149.28
2023-01-21T15:02:46.265Z,100155.38
2023-01-21T15:05:27.695Z,100158.03
2023-01-21T15:08:06.419Z,100156.28
2023-01-21T15:10:40.083Z,100158.97
2023-01-21T15:13:29.252Z,100161.56
2023-01-21T15:16:15.041Z,100168.53
2023-01-21T15:18:48.781Z,100181.53
2023-01-21T15:21:38.574Z,100178.09
2023-01-21T15:24:24.570Z,100189.34
2023-01-21T15:27:18.719Z,100189.41
2023-01-21T15:30:28.295Z,100199.75
2023-01-21T15:32:57.988Z,100191.19
2023-01-21T15:35:43.723Z,100192.03
2023-01-21T15:38:19.089Z,100201.53
2023-01-21T15:40:53.260Z,100205.00
2023-01-21T15:43:33.185Z,100211.97
2023-01-21T15:46:22.950Z,100222.31
2023-01-21T15:49:04.131Z,100233.50
2023-01-21T15:51:47.960Z,100233.50
2023-01-21T15:54:28.177Z,100232.66
2023-01-21T15:57:06.531Z,100236.97
2023-01-21T16:00:12.869Z,100243.84
2023-01-21T16:02:53.177Z,100253.31
2023-01-21T16:05:30.544Z,100255.94
2023-01-21T16:08:12.443Z,100261.94
2023-01-21T16:10:52.735Z,100263.66
2023-01-21T16:13:30.736Z,100268.00
2023-01-21T16:16:12.786Z,100274.00
2023-01-21T16:18:53.855Z,100279.16
2023-01-21T16:21:24.899Z,100278.31
2023-01-21T16:23:57.654Z,100283.50
2023-01-21T16:26:28.078Z,100284.34
2023-01-21T16:28:56.793Z,100292.13
2023-01-21T16:31:27.829Z,100296.47
2023-01-21T16:33:56.158Z,100306.81
2023-01-21T16:36:25.341Z,100308.53
2023-01-21T16:38:54.135Z,100313.72
2023-01-21T16:41:27.787Z,100322.34
2023-01-21T16:44:00.169Z,100319.75
2023-01-21T16:46:34.922Z,100330.13
2023-01-21T16:49:05.951Z,100336.16
2023-01-21T16:51:36.460Z,100327.56
2023-01-21T16:54:25.897Z,100336.19
2023-01-21T16:56:58.041Z,100338.81
2023-01-21T16:59:27.961Z,100346.56
2023-01-21T17:02:00.311Z,100357.81
2023-01-21T17:04:30.441Z,100358.69
2023-01-21T17:06:59.066Z,100360.44
2023-01-21T17:09:31.845Z,100362.19
2023-01-21T17:12:06.555Z,100369.09
2023-01-21T17:14:36.204Z,100374.25
2023-01-21T17:17:09.299Z,100370.84
2023-01-21T17:19:39.948Z,100374.25
2023-01-21T17:22:15.870Z,100382.00
2023-01-21T17:24:56.821Z,100383.72
2023-01-21T17:27:26.555Z,100386.31
2023-01-21T17:30:15.370Z,100380.31
2023-01-21T17:32:53.811Z,100386.34
2023-01-21T17:35:23.679Z,100386.34
2023-01-21T17:37:57.210Z,100399.28
2023-01-21T17:40:27.537Z,100394.13
2023-01-21T17:42:56.579Z,100401.88
2023-01-21T17:45:31.109Z,100399.25
2023-01-21T17:48:10.310Z,100410.47
2023-01-21T17:50:47.421Z,100416.50
2023-01-21T17:53:22.886Z,100416.47
2023-01-21T17:56:00.702Z,100424.22
2023-01-21T17:58:50.895Z,100419.06
2023-01-21T18:01:20.595Z,100423.38
2023-01-21T18:03:50.543Z,100432.88
2023-01-21T18:06:21.481Z,100438.91
2023-01-21T18:08:52.949Z,100439.75
2023-01-21T18:11:22.177Z,100445.78
2023-01-21T18:13:51.657Z,100445.78
2023-01-21T18:16:20.159Z,100442.34
2023-01-21T18:18:50.827Z,100449.22
2023-01-21T18:21:21.173Z,100439.75
2023-01-21T18:23:50.071Z,100450.09
2023-01-21T18:26:26.723Z,100456.16
2023-01-21T18:28:55.083Z,100460.47
2023-01-21T18:31:23.692Z,100460.47
2023-01-21T18:33:53.536Z,100470.81
2023-01-21T18:36:22.345Z,100473.41
2023-01-21T18:38:50.672Z,100471.69
2023-01-21T18:41:19.151Z,100474.28
2023-01-21T18:43:47.679Z,100478.59
2023-01-21T18:46:17.235Z,100480.34
2023-01-21T18:48:45.966Z,100497.59
2023-01-21T18:51:15.909Z,100498.47
2023-01-21T18:53:44.313Z,100500.19
2023-01-21T18:56:15.257Z,100501.06
2023-01-21T18:58:44.725Z,100508.81
2023-01-21T19:01:23.014Z,100512.25
2023-01-21T19:03:54.938Z,100516.56
2023-01-21T19:06:26.247Z,100512.25
2023-01-21T19:08:55.303Z,100518.28
2023-01-21T19:11:24.088Z,100524.28
2023-01-21T19:13:52.963Z,100528.63
2023-01-21T19:16:22.365Z,100536.38
2023-01-21T19:18:51.852Z,100532.91
2023-01-21T19:21:20.691Z,100533.78
2023-01-21T19:23:50.953Z,100553.63
2023-01-21T19:26:19.963Z,100546.72
2023-01-21T19:28:48.572Z,100557.06
2023-01-21T19:31:17.363Z,100563.97
2023-01-21T19:33:47.301Z,100564.81
2023-01-21T19:36:19.885Z,100558.78
2023-01-21T19:38:56.401Z,100563.94
2023-01-21T19:41:25.947Z,100571.72
2023-01-21T19:43:54.392Z,100586.38
2023-01-21T19:46:24.314Z,100589.84
2023-01-21T19:48:53.896Z,100591.56
2023-01-21T19:51:22.702Z,100594.97
2023-01-21T19:53:52.545Z,100582.91
2023-01-21T19:56:24.607Z,100590.66
2023-01-21T19:58:53.469Z,100594.13
2023-01-21T20:01:22.316Z,100599.31
2023-01-21T20:03:59.762Z,100596.72
2023-01-21T20:06:34.056Z,100607.09
2023-01-21T20:10:32.302Z,100604.50
2023-01-21T20:13:01.125Z,100604.50
2023-01-21T20:15:31.792Z,100613.97
2023-01-21T20:18:02.469Z,100605.38
2023-01-21T20:20:33.144Z,100620.88
2023-01-21T20:23:02.700Z,100621.72
2023-01-21T20:25:37.027Z,100632.06
2023-01-21T20:28:13.982Z,100632.94
2023-01-21T20:30:45.385Z,100634.66
2023-01-21T20:33:17.014Z,100632.06
2023-01-21T20:35:47.678Z,100638.97
2023-01-21T20:38:21.170Z,100643.28
2023-01-21T20:40:51.135Z,100643.25
2023-01-21T20:43:20.547Z,100653.59
2023-01-21T20:45:52.649Z,100659.66
2023-01-21T20:48:24.340Z,100656.19
2023-01-21T20:50:54.078Z,100667.38
2023-01-21T20:53:23.200Z,100667.38
2023-01-21T20:55:54.491Z,100662.22
2023-01-21T20:58:23.358Z,100674.28
2023-01-21T21:00:51.894Z,100685.50
2023-01-21T21:03:20.435Z,100683.78
2023-01-21T21:05:50.231Z,100694.97
2023-01-21T21:08:20.571Z,100691.53
2023-01-21T21:10:50.943Z,100701.88
2023-01-21T21:13:20.820Z,100704.44
2023-01-21T21:15:51.075Z,100707.03
2023-01-21T21:18:19.765Z,100710.47
2023-01-21T21:20:48.257Z,100701.00
2023-01-21T21:23:16.916Z,100710.47
2023-01-21T21:25:47.391Z,100718.25
2023-01-21T21:28:18.138Z,100717.38
2023-01-21T21:30:48.413Z,100722.53
2023-01-21T21:33:22.231Z,100727.72
2023-01-21T21:35:51.567Z,100730.31
2023-01-21T21:38:22.102Z,100726.84
2023-01-21T21:40:53.101Z,100724.25
2023-01-21T21:43:35.828Z,100728.56
2023-01-21T21:46:27.873Z,100732.88
2023-01-21T21:48:56.305Z,100735.47
2023-01-21T21:51:25.236Z,100743.25
2023-01-21T21:53:53.902Z,100735.47
2023-01-21T21:56:23.846Z,100743.22
2023-01-21T21:58:52.475Z,100746.66
2023-01-21T22:01:24.678Z,100746.66
2023-01-21T22:03:53.896Z,100746.66
2023-01-21T22:06:23.750Z,100747.53
2023-01-21T22:08:55.010Z,100740.66
2023-01-21T22:11:24.399Z,100744.94
2023-01-21T22:13:54.114Z,100738.03
2023-01-21T22:16:26.456Z,100743.22
2023-01-21T22:18:56.102Z,100743.22
2023-01-21T22:21:26.607Z,100748.38
2023-01-21T22:23:55.860Z,100757.88
2023-01-21T22:26:26.299Z,100758.75
2023-01-21T22:28:55.610Z,100758.75
2023-01-21T22:31:27.466Z,100752.69
2023-01-21T22:33:56.938Z,100762.19
2023-01-21T22:36:28.121Z,100757.88
2023-01-21T22:38:57.013Z,100765.66
2023-01-21T22:41:26.290Z,100768.25
2023-01-21T22:43:55.217Z,100771.69
2023-01-21T22:46:27.073Z,100771.69
2023-01-21T22:48:56.045Z,100773.41
2023-01-21T22:51:24.828Z,100770.84
2023-01-21T22:53:53.988Z,100777.72
2023-01-21T22:56:44.769Z,100779.44
2023-01-21T22:59:14.344Z,100775.97
2023-01-21T23:01:44.492Z,100779.41
2023-01-21T23:04:13.372Z,100786.31
2023-01-21T23:06:44.877Z,100788.88
2023-01-21T23:09:14.357Z,100786.28
2023-01-21T23:11:45.146Z,100791.47
2023-01-21T23:14:14.291Z,100794.94
2023-01-21T23:16:44.035Z,100787.19
2023-01-21T23:19:13.152Z,100792.34
2023-01-21T23:21:41.657Z,100799.25
2023-01-21T23:24:10.079Z,100801.84
2023-01-21T23:26:38.956Z,100805.28
2023-01-21T23:29:07.324Z,100800.13
2023-01-21T23:31:36.313Z,100797.53
2023-01-21T23:34:06.210Z,100792.38
2023-01-21T23:36:35.168Z,100797.56
2023-01-21T23:39:03.890Z,100810.44
2023-01-21T23:41:32.489Z,100810.47
2023-01-21T23:44:02.007Z,100803.59
2023-01-21T23:46:31.261Z,100806.16
2023-01-21T23:48:59.800Z,100795.81
2023-01-21T23:51:30.119Z,100810.47
2023-01-21T23:53:58.575Z,100803.59
2023-01-21T23:56:27.568Z,100812.19
2023-01-21T23:58:56.306Z,100807.88
